sensor_id;sensor_type;location;lat;lon;timestamp;temperature;humidity
38090;DHT22;23904;52.322;10.232;2023-04-07T00:01:46;6.60;85.80
38090;DHT22;23904;52.322;10.232;2023-04-07T00:04:12;6.60;86.10
38090;DHT22;23904;52.322;10.232;2023-04-07T00:06:37;6.60;86.60
38090;DHT22;23904;52.322;10.232;2023-04-07T00:09:06;6.60;86.60
38090;DHT22;23904;52.322;10.232;2023-04-07T00:11:31;6.60;86.50
38090;DHT22;23904;52.322;10.232;2023-04-07T00:13:57;6.60;86.70
38090;DHT22;23904;52.322;10.232;2023-04-07T00:16:23;6.50;86.90
38090;DHT22;23904;52.322;10.232;2023-04-07T00:18:48;6.50;87.90
38090;DHT22;23904;52.322;10.232;2023-04-07T00:21:14;6.40;87.70
38090;DHT22;23904;52.322;10.232;2023-04-07T00:23:41;6.50;88.00
38090;DHT22;23904;52.322;10.232;2023-04-07T00:26:07;6.50;87.90
38090;DHT22;23904;52.322;10.232;2023-04-07T00:28:33;6.50;88.10
38090;DHT22;23904;52.322;10.232;2023-04-07T00:30:58;6.40;88.60
38090;DHT22;23904;52.322;10.232;2023-04-07T00:33:24;6.40;88.70
38090;DHT22;23904;52.322;10.232;2023-04-07T00:35:50;6.40;88.50
38090;DHT22;23904;52.322;10.232;2023-04-07T00:38:16;6.40;89.20
38090;DHT22;23904;52.322;10.232;2023-04-07T00:40:41;6.40;88.80
38090;DHT22;23904;52.322;10.232;2023-04-07T00:43:07;6.30;89.20
38090;DHT22;23904;52.322;10.232;2023-04-07T00:45:34;6.30;89.70
38090;DHT22;23904;52.322;10.232;2023-04-07T00:48:00;6.20;90.00
38090;DHT22;23904;52.322;10.232;2023-04-07T00:50:26;6.20;90.40
38090;DHT22;23904;52.322;10.232;2023-04-07T00:52:52;6.20;90.40
38090;DHT22;23904;52.322;10.232;2023-04-07T00:55:18;6.10;90.60
38090;DHT22;23904;52.322;10.232;2023-04-07T00:57:44;6.20;90.90
38090;DHT22;23904;52.322;10.232;2023-04-07T01:00:11;6.10;90.80
38090;DHT22;23904;52.322;10.232;2023-04-07T01:02:47;6.10;90.90
38090;DHT22;23904;52.322;10.232;2023-04-07T01:05:22;6.10;91.00
38090;DHT22;23904;52.322;10.232;2023-04-07T01:08:14;6.10;90.90
38090;DHT22;23904;52.322;10.232;2023-04-07T01:13:52;6.00;91.10
38090;DHT22;23904;52.322;10.232;2023-04-07T01:16:30;6.00;91.30
38090;DHT22;23904;52.322;10.232;2023-04-07T01:19:02;6.00;91.30
38090;DHT22;23904;52.322;10.232;2023-04-07T01:21:32;6.00;91.30
38090;DHT22;23904;52.322;10.232;2023-04-07T01:24:33;6.00;91.40
38090;DHT22;23904;52.322;10.232;2023-04-07T01:27:21;6.00;91.30
38090;DHT22;23904;52.322;10.232;2023-04-07T01:29:53;5.90;91.40
38090;DHT22;23904;52.322;10.232;2023-04-07T01:32:21;5.90;91.80
38090;DHT22;23904;52.322;10.232;2023-04-07T01:34:49;5.90;91.60
38090;DHT22;23904;52.322;10.232;2023-04-07T01:37:16;5.90;91.60
38090;DHT22;23904;52.322;10.232;2023-04-07T01:39:42;5.90;91.70
38090;DHT22;23904;52.322;10.232;2023-04-07T01:42:08;5.90;91.70
38090;DHT22;23904;52.322;10.232;2023-04-07T01:44:35;5.90;91.80
38090;DHT22;23904;52.322;10.232;2023-04-07T01:47:01;5.90;91.70
38090;DHT22;23904;52.322;10.232;2023-04-07T01:49:29;5.80;91.80
38090;DHT22;23904;52.322;10.232;2023-04-07T01:51:56;5.80;91.70
38090;DHT22;23904;52.322;10.232;2023-04-07T01:54:22;5.90;91.60
38090;DHT22;23904;52.322;10.232;2023-04-07T01:56:48;5.80;91.70
38090;DHT22;23904;52.322;10.232;2023-04-07T01:59:14;5.80;91.50
38090;DHT22;23904;52.322;10.232;2023-04-07T02:01:39;5.80;91.70
38090;DHT22;23904;52.322;10.232;2023-04-07T02:04:20;5.70;91.70
38090;DHT22;23904;52.322;10.232;2023-04-07T02:07:08;5.70;91.80
38090;DHT22;23904;52.322;10.232;2023-04-07T02:09:39;5.70;91.80
38090;DHT22;23904;52.322;10.232;2023-04-07T02:12:08;5.70;92.00
38090;DHT22;23904;52.322;10.232;2023-04-07T02:14:38;5.70;91.90
38090;DHT22;23904;52.322;10.232;2023-04-07T02:17:04;5.60;91.90
38090;DHT22;23904;52.322;10.232;2023-04-07T02:19:30;5.60;92.00
38090;DHT22;23904;52.322;10.232;2023-04-07T02:22:00;5.60;92.00
38090;DHT22;23904;52.322;10.232;2023-04-07T02:24:27;5.60;92.30
38090;DHT22;23904;52.322;10.232;2023-04-07T02:26:53;5.60;91.90
38090;DHT22;23904;52.322;10.232;2023-04-07T02:29:20;5.60;92.20
38090;DHT22;23904;52.322;10.232;2023-04-07T02:31:46;5.60;92.20
38090;DHT22;23904;52.322;10.232;2023-04-07T02:34:11;5.50;92.40
38090;DHT22;23904;52.322;10.232;2023-04-07T02:36:37;5.50;92.40
38090;DHT22;23904;52.322;10.232;2023-04-07T02:39:02;5.50;92.70
38090;DHT22;23904;52.322;10.232;2023-04-07T02:41:28;5.40;92.90
38090;DHT22;23904;52.322;10.232;2023-04-07T02:43:54;5.40;93.00
38090;DHT22;23904;52.322;10.232;2023-04-07T02:46:20;5.40;93.00
38090;DHT22;23904;52.322;10.232;2023-04-07T02:48:45;5.40;93.00
38090;DHT22;23904;52.322;10.232;2023-04-07T02:51:11;5.30;93.10
38090;DHT22;23904;52.322;10.232;2023-04-07T02:53:36;5.30;93.20
38090;DHT22;23904;52.322;10.232;2023-04-07T02:56:02;5.20;93.40
38090;DHT22;23904;52.322;10.232;2023-04-07T02:58:28;5.10;93.40
38090;DHT22;23904;52.322;10.232;2023-04-07T03:00:53;5.20;93.30
38090;DHT22;23904;52.322;10.232;2023-04-07T03:03:19;5.10;93.50
38090;DHT22;23904;52.322;10.232;2023-04-07T03:05:44;5.10;93.40
38090;DHT22;23904;52.322;10.232;2023-04-07T03:08:10;5.00;93.70
38090;DHT22;23904;52.322;10.232;2023-04-07T03:10:35;5.10;93.40
38090;DHT22;23904;52.322;10.232;2023-04-07T03:13:01;5.10;93.40
38090;DHT22;23904;52.322;10.232;2023-04-07T03:15:27;5.00;93.60
38090;DHT22;23904;52.322;10.232;2023-04-07T03:17:52;5.00;93.60
38090;DHT22;23904;52.322;10.232;2023-04-07T03:20:18;4.90;93.90
38090;DHT22;23904;52.322;10.232;2023-04-07T03:22:43;4.90;93.60
38090;DHT22;23904;52.322;10.232;2023-04-07T03:25:11;4.90;93.70
38090;DHT22;23904;52.322;10.232;2023-04-07T03:27:37;5.00;93.50
38090;DHT22;23904;52.322;10.232;2023-04-07T03:30:03;5.00;93.40
38090;DHT22;23904;52.322;10.232;2023-04-07T03:32:29;5.00;93.30
38090;DHT22;23904;52.322;10.232;2023-04-07T03:34:54;5.00;93.30
38090;DHT22;23904;52.322;10.232;2023-04-07T03:37:20;5.00;93.40
38090;DHT22;23904;52.322;10.232;2023-04-07T03:39:46;5.00;93.30
38090;DHT22;23904;52.322;10.232;2023-04-07T03:42:11;4.90;93.40
38090;DHT22;23904;52.322;10.232;2023-04-07T03:44:37;5.00;93.30
38090;DHT22;23904;52.322;10.232;2023-04-07T03:47:03;4.90;93.30
38090;DHT22;23904;52.322;10.232;2023-04-07T03:49:28;4.90;93.60
38090;DHT22;23904;52.322;10.232;2023-04-07T03:51:55;4.90;93.60
38090;DHT22;23904;52.322;10.232;2023-04-07T03:54:21;4.80;93.60
38090;DHT22;23904;52.322;10.232;2023-04-07T03:56:47;4.80;93.60
38090;DHT22;23904;52.322;10.232;2023-04-07T03:59:13;4.80;93.80
38090;DHT22;23904;52.322;10.232;2023-04-07T04:01:38;4.80;93.80
38090;DHT22;23904;52.322;10.232;2023-04-07T04:04:04;4.80;93.90
38090;DHT22;23904;52.322;10.232;2023-04-07T04:06:30;4.80;93.80
38090;DHT22;23904;52.322;10.232;2023-04-07T04:08:56;4.70;94.10
38090;DHT22;23904;52.322;10.232;2023-04-07T04:11:21;4.60;94.10
38090;DHT22;23904;52.322;10.232;2023-04-07T04:13:47;4.70;94.30
38090;DHT22;23904;52.322;10.232;2023-04-07T04:16:12;4.60;94.30
38090;DHT22;23904;52.322;10.232;2023-04-07T04:18:38;4.60;94.30
38090;DHT22;23904;52.322;10.232;2023-04-07T04:21:03;4.60;94.60
38090;DHT22;23904;52.322;10.232;2023-04-07T04:23:29;4.50;94.60
38090;DHT22;23904;52.322;10.232;2023-04-07T04:25:55;4.60;94.60
38090;DHT22;23904;52.322;10.232;2023-04-07T04:28:21;4.50;94.80
38090;DHT22;23904;52.322;10.232;2023-04-07T04:30:46;4.50;95.10
38090;DHT22;23904;52.322;10.232;2023-04-07T04:33:12;4.40;95.20
38090;DHT22;23904;52.322;10.232;2023-04-07T04:35:38;4.40;95.30
38090;DHT22;23904;52.322;10.232;2023-04-07T04:38:03;4.40;95.60
38090;DHT22;23904;52.322;10.232;2023-04-07T04:40:29;4.30;95.50
38090;DHT22;23904;52.322;10.232;2023-04-07T04:42:54;4.30;95.60
38090;DHT22;23904;52.322;10.232;2023-04-07T04:45:20;4.30;96.00
38090;DHT22;23904;52.322;10.232;2023-04-07T04:47:46;4.30;96.00
38090;DHT22;23904;52.322;10.232;2023-04-07T04:50:11;4.20;96.30
38090;DHT22;23904;52.322;10.232;2023-04-07T04:52:37;4.20;96.10
38090;DHT22;23904;52.322;10.232;2023-04-07T04:55:03;4.30;96.00
38090;DHT22;23904;52.322;10.232;2023-04-07T04:57:29;4.20;96.10
38090;DHT22;23904;52.322;10.232;2023-04-07T04:59:55;4.20;96.20
38090;DHT22;23904;52.322;10.232;2023-04-07T05:02:21;4.20;96.10
38090;DHT22;23904;52.322;10.232;2023-04-07T05:04:46;4.20;96.20
38090;DHT22;23904;52.322;10.232;2023-04-07T05:07:12;4.20;96.40
38090;DHT22;23904;52.322;10.232;2023-04-07T05:09:37;4.20;96.20
38090;DHT22;23904;52.322;10.232;2023-04-07T05:12:03;4.30;96.00
38090;DHT22;23904;52.322;10.232;2023-04-07T05:14:29;4.30;95.90
38090;DHT22;23904;52.322;10.232;2023-04-07T05:16:55;4.30;95.80
38090;DHT22;23904;52.322;10.232;2023-04-07T05:19:21;4.30;96.00
38090;DHT22;23904;52.322;10.232;2023-04-07T05:21:46;4.30;95.60
38090;DHT22;23904;52.322;10.232;2023-04-07T05:24:12;4.40;95.60
38090;DHT22;23904;52.322;10.232;2023-04-07T05:26:37;4.40;95.50
38090;DHT22;23904;52.322;10.232;2023-04-07T05:29:03;4.50;95.50
38090;DHT22;23904;52.322;10.232;2023-04-07T05:31:28;4.50;95.70
38090;DHT22;23904;52.322;10.232;2023-04-07T05:33:54;4.50;95.30
38090;DHT22;23904;52.322;10.232;2023-04-07T05:36:20;4.50;95.10
38090;DHT22;23904;52.322;10.232;2023-04-07T05:38:45;4.50;95.30
38090;DHT22;23904;52.322;10.232;2023-04-07T05:41:11;4.50;95.40
38090;DHT22;23904;52.322;10.232;2023-04-07T05:43:36;4.60;95.10
38090;DHT22;23904;52.322;10.232;2023-04-07T05:46:02;4.60;95.10
38090;DHT22;23904;52.322;10.232;2023-04-07T05:48:27;4.60;94.90
38090;DHT22;23904;52.322;10.232;2023-04-07T05:50:53;4.70;94.90
38090;DHT22;23904;52.322;10.232;2023-04-07T05:53:18;4.60;94.90
38090;DHT22;23904;52.322;10.232;2023-04-07T05:55:44;4.70;94.90
38090;DHT22;23904;52.322;10.232;2023-04-07T05:58:10;4.70;95.20
38090;DHT22;23904;52.322;10.232;2023-04-07T06:00:35;4.70;95.30
38090;DHT22;23904;52.322;10.232;2023-04-07T06:03:01;4.70;95.20
38090;DHT22;23904;52.322;10.232;2023-04-07T06:05:27;4.80;95.20
38090;DHT22;23904;52.322;10.232;2023-04-07T06:07:53;4.80;95.20
38090;DHT22;23904;52.322;10.232;2023-04-07T06:10:19;4.80;95.30
38090;DHT22;23904;52.322;10.232;2023-04-07T06:12:44;4.70;95.30
38090;DHT22;23904;52.322;10.232;2023-04-07T06:15:10;4.70;95.60
38090;DHT22;23904;52.322;10.232;2023-04-07T06:17:36;4.70;95.60
38090;DHT22;23904;52.322;10.232;2023-04-07T06:20:02;4.80;95.40
38090;DHT22;23904;52.322;10.232;2023-04-07T06:22:28;4.80;95.40
38090;DHT22;23904;52.322;10.232;2023-04-07T06:24:53;4.90;95.20
38090;DHT22;23904;52.322;10.232;2023-04-07T06:27:20;4.90;95.50
38090;DHT22;23904;52.322;10.232;2023-04-07T06:29:46;5.00;94.90
38090;DHT22;23904;52.322;10.232;2023-04-07T06:32:12;5.10;94.90
38090;DHT22;23904;52.322;10.232;2023-04-07T06:34:37;5.20;94.70
38090;DHT22;23904;52.322;10.232;2023-04-07T06:37:03;5.30;94.10
38090;DHT22;23904;52.322;10.232;2023-04-07T06:39:29;5.30;94.30
38090;DHT22;23904;52.322;10.232;2023-04-07T06:41:55;5.40;94.50
38090;DHT22;23904;52.322;10.232;2023-04-07T06:44:21;5.50;94.50
38090;DHT22;23904;52.322;10.232;2023-04-07T06:46:47;5.60;94.20
38090;DHT22;23904;52.322;10.232;2023-04-07T06:49:17;5.70;93.90
38090;DHT22;23904;52.322;10.232;2023-04-07T06:51:42;5.90;93.90
38090;DHT22;23904;52.322;10.232;2023-04-07T06:54:08;5.90;93.60
38090;DHT22;23904;52.322;10.232;2023-04-07T06:56:37;6.00;93.20
38090;DHT22;23904;52.322;10.232;2023-04-07T06:59:03;6.10;93.10
38090;DHT22;23904;52.322;10.232;2023-04-07T07:01:28;6.00;93.20
38090;DHT22;23904;52.322;10.232;2023-04-07T07:03:54;6.20;92.20
38090;DHT22;23904;52.322;10.232;2023-04-07T07:06:19;6.20;92.50
38090;DHT22;23904;52.322;10.232;2023-04-07T07:08:45;6.20;92.70
38090;DHT22;23904;52.322;10.232;2023-04-07T07:11:10;6.20;92.50
38090;DHT22;23904;52.322;10.232;2023-04-07T07:13:36;6.20;92.10
38090;DHT22;23904;52.322;10.232;2023-04-07T07:16:01;6.20;92.80
38090;DHT22;23904;52.322;10.232;2023-04-07T07:18:27;6.20;92.70
38090;DHT22;23904;52.322;10.232;2023-04-07T07:20:52;6.30;93.00
38090;DHT22;23904;52.322;10.232;2023-04-07T07:23:18;6.50;92.30
38090;DHT22;23904;52.322;10.232;2023-04-07T07:25:44;6.70;91.90
38090;DHT22;23904;52.322;10.232;2023-04-07T07:28:09;6.90;91.80
38090;DHT22;23904;52.322;10.232;2023-04-07T07:30:35;7.10;91.40
38090;DHT22;23904;52.322;10.232;2023-04-07T07:33:03;7.30;91.00
38090;DHT22;23904;52.322;10.232;2023-04-07T07:35:29;7.50;90.10
38090;DHT22;23904;52.322;10.232;2023-04-07T07:37:56;7.70;89.60
38090;DHT22;23904;52.322;10.232;2023-04-07T07:40:22;7.80;88.20
38090;DHT22;23904;52.322;10.232;2023-04-07T07:42:47;7.90;89.10
38090;DHT22;23904;52.322;10.232;2023-04-07T07:45:13;8.00;88.20
38090;DHT22;23904;52.322;10.232;2023-04-07T07:47:39;8.20;86.40
38090;DHT22;23904;52.322;10.232;2023-04-07T07:50:05;8.40;86.40
38090;DHT22;23904;52.322;10.232;2023-04-07T07:52:31;8.60;85.50
38090;DHT22;23904;52.322;10.232;2023-04-07T07:54:57;8.80;83.60
38090;DHT22;23904;52.322;10.232;2023-04-07T07:57:22;9.00;84.00
38090;DHT22;23904;52.322;10.232;2023-04-07T07:59:48;9.20;82.70
38090;DHT22;23904;52.322;10.232;2023-04-07T08:02:14;9.40;81.30
38090;DHT22;23904;52.322;10.232;2023-04-07T08:04:39;9.70;80.90
38090;DHT22;23904;52.322;10.232;2023-04-07T08:07:05;10.10;79.20
38090;DHT22;23904;52.322;10.232;2023-04-07T08:09:31;10.60;76.80
38090;DHT22;23904;52.322;10.232;2023-04-07T08:11:57;11.40;72.60
38090;DHT22;23904;52.322;10.232;2023-04-07T08:14:22;11.90;69.70
38090;DHT22;23904;52.322;10.232;2023-04-07T08:16:48;12.80;66.80
38090;DHT22;23904;52.322;10.232;2023-04-07T08:19:14;13.80;62.50
38090;DHT22;23904;52.322;10.232;2023-04-07T08:21:39;14.90;58.30
38090;DHT22;23904;52.322;10.232;2023-04-07T08:24:05;15.30;53.50
38090;DHT22;23904;52.322;10.232;2023-04-07T08:26:31;15.70;50.60
38090;DHT22;23904;52.322;10.232;2023-04-07T08:28:57;16.50;49.10
38090;DHT22;23904;52.322;10.232;2023-04-07T08:31:23;17.10;47.70
38090;DHT22;23904;52.322;10.232;2023-04-07T08:33:49;18.00;46.30
38090;DHT22;23904;52.322;10.232;2023-04-07T08:36:21;19.00;44.10
38090;DHT22;23904;52.322;10.232;2023-04-07T08:38:48;19.90;42.00
38090;DHT22;23904;52.322;10.232;2023-04-07T08:41:17;20.40;40.60
38090;DHT22;23904;52.322;10.232;2023-04-07T08:43:47;20.50;39.90
38090;DHT22;23904;52.322;10.232;2023-04-07T08:46:14;20.60;39.90
38090;DHT22;23904;52.322;10.232;2023-04-07T08:48:42;20.50;41.10
38090;DHT22;23904;52.322;10.232;2023-04-07T08:51:08;21.60;40.70
38090;DHT22;23904;52.322;10.232;2023-04-07T08:53:48;22.00;39.80
38090;DHT22;23904;52.322;10.232;2023-04-07T08:56:16;21.40;39.70
38090;DHT22;23904;52.322;10.232;2023-04-07T08:58:44;21.60;39.30
38090;DHT22;23904;52.322;10.232;2023-04-07T09:01:13;20.90;38.60
38090;DHT22;23904;52.322;10.232;2023-04-07T09:03:41;21.30;38.70
38090;DHT22;23904;52.322;10.232;2023-04-07T09:06:09;22.00;38.10
38090;DHT22;23904;52.322;10.232;2023-04-07T09:08:35;22.10;38.30
38090;DHT22;23904;52.322;10.232;2023-04-07T09:11:01;22.10;37.50
38090;DHT22;23904;52.322;10.232;2023-04-07T09:13:27;22.50;37.30
38090;DHT22;23904;52.322;10.232;2023-04-07T09:15:53;22.40;36.80
38090;DHT22;23904;52.322;10.232;2023-04-07T09:18:19;22.10;37.20
38090;DHT22;23904;52.322;10.232;2023-04-07T09:21:02;21.80;37.10
38090;DHT22;23904;52.322;10.232;2023-04-07T09:23:34;22.00;37.70
38090;DHT22;23904;52.322;10.232;2023-04-07T09:26:23;22.10;37.20
38090;DHT22;23904;52.322;10.232;2023-04-07T09:31:49;21.90;36.40
38090;DHT22;23904;52.322;10.232;2023-04-07T09:34:24;21.40;37.20
38090;DHT22;23904;52.322;10.232;2023-04-07T09:36:55;21.10;37.30
38090;DHT22;23904;52.322;10.232;2023-04-07T09:39:21;21.50;36.70
38090;DHT22;23904;52.322;10.232;2023-04-07T09:41:47;21.60;36.20
38090;DHT22;23904;52.322;10.232;2023-04-07T09:44:13;21.40;37.80
38090;DHT22;23904;52.322;10.232;2023-04-07T09:49:23;22.10;36.20
38090;DHT22;23904;52.322;10.232;2023-04-07T09:51:57;21.10;36.20
38090;DHT22;23904;52.322;10.232;2023-04-07T09:54:34;20.30;38.10
38090;DHT22;23904;52.322;10.232;2023-04-07T09:57:10;20.40;38.90
38090;DHT22;23904;52.322;10.232;2023-04-07T09:59:40;20.80;38.20
38090;DHT22;23904;52.322;10.232;2023-04-07T10:02:07;21.70;36.40
38090;DHT22;23904;52.322;10.232;2023-04-07T10:04:36;21.70;35.20
38090;DHT22;23904;52.322;10.232;2023-04-07T10:07:04;21.30;35.90
38090;DHT22;23904;52.322;10.232;2023-04-07T10:09:30;21.30;36.20
38090;DHT22;23904;52.322;10.232;2023-04-07T10:11:57;21.80;35.50
38090;DHT22;23904;52.322;10.232;2023-04-07T10:14:29;22.40;35.50
38090;DHT22;23904;52.322;10.232;2023-04-07T10:16:56;23.20;34.40
38090;DHT22;23904;52.322;10.232;2023-04-07T10:19:23;23.70;33.20
38090;DHT22;23904;52.322;10.232;2023-04-07T10:21:52;23.70;33.70
38090;DHT22;23904;52.322;10.232;2023-04-07T10:27:44;24.10;32.10
38090;DHT22;23904;52.322;10.232;2023-04-07T10:30:27;24.10;31.30
38090;DHT22;23904;52.322;10.232;2023-04-07T10:32:54;22.90;32.80
38090;DHT22;23904;52.322;10.232;2023-04-07T10:35:20;22.90;32.80
38090;DHT22;23904;52.322;10.232;2023-04-07T10:40:31;23.50;32.60
38090;DHT22;23904;52.322;10.232;2023-04-07T10:42:57;23.60;32.10
38090;DHT22;23904;52.322;10.232;2023-04-07T10:48:10;24.20;31.10
38090;DHT22;23904;52.322;10.232;2023-04-07T10:50:37;24.40;30.80
38090;DHT22;23904;52.322;10.232;2023-04-07T10:53:13;24.40;30.20
38090;DHT22;23904;52.322;10.232;2023-04-07T10:55:46;23.60;30.80
38090;DHT22;23904;52.322;10.232;2023-04-07T10:58:28;23.50;31.50
38090;DHT22;23904;52.322;10.232;2023-04-07T11:03:33;24.10;31.20
38090;DHT22;23904;52.322;10.232;2023-04-07T11:08:41;24.20;30.50
38090;DHT22;23904;52.322;10.232;2023-04-07T11:11:13;24.30;30.90
38090;DHT22;23904;52.322;10.232;2023-04-07T11:13:40;23.30;32.30
38090;DHT22;23904;52.322;10.232;2023-04-07T11:16:06;23.50;32.30
38090;DHT22;23904;52.322;10.232;2023-04-07T11:18:33;24.00;31.40
38090;DHT22;23904;52.322;10.232;2023-04-07T11:20:59;23.80;32.50
38090;DHT22;23904;52.322;10.232;2023-04-07T11:23:26;24.50;31.10
38090;DHT22;23904;52.322;10.232;2023-04-07T11:25:59;24.50;30.60
38090;DHT22;23904;52.322;10.232;2023-04-07T11:28:26;24.20;31.20
38090;DHT22;23904;52.322;10.232;2023-04-07T11:30:53;24.40;31.00
38090;DHT22;23904;52.322;10.232;2023-04-07T11:33:24;24.40;31.10
38090;DHT22;23904;52.322;10.232;2023-04-07T11:35:53;24.70;30.30
38090;DHT22;23904;52.322;10.232;2023-04-07T11:38:28;24.20;30.80
38090;DHT22;23904;52.322;10.232;2023-04-07T11:40:55;23.20;31.70
38090;DHT22;23904;52.322;10.232;2023-04-07T11:43:24;23.60;32.30
38090;DHT22;23904;52.322;10.232;2023-04-07T11:46:25;24.00;32.00
38090;DHT22;23904;52.322;10.232;2023-04-07T11:48:50;24.60;30.50
38090;DHT22;23904;52.322;10.232;2023-04-07T11:51:17;24.80;29.90
38090;DHT22;23904;52.322;10.232;2023-04-07T11:53:45;24.10;30.60
38090;DHT22;23904;52.322;10.232;2023-04-07T11:56:15;23.30;32.00
38090;DHT22;23904;52.322;10.232;2023-04-07T11:58:48;23.60;31.30
38090;DHT22;23904;52.322;10.232;2023-04-07T12:01:18;23.50;31.80
38090;DHT22;23904;52.322;10.232;2023-04-07T12:04:02;24.60;31.10
38090;DHT22;23904;52.322;10.232;2023-04-07T12:06:30;24.70;30.50
38090;DHT22;23904;52.322;10.232;2023-04-07T12:09:03;24.80;30.20
38090;DHT22;23904;52.322;10.232;2023-04-07T12:11:30;25.40;30.00
38090;DHT22;23904;52.322;10.232;2023-04-07T12:13:57;26.00;29.40
38090;DHT22;23904;52.322;10.232;2023-04-07T12:16:22;25.50;29.90
38090;DHT22;23904;52.322;10.232;2023-04-07T12:18:49;25.50;29.30
38090;DHT22;23904;52.322;10.232;2023-04-07T12:21:16;24.20;30.00
38090;DHT22;23904;52.322;10.232;2023-04-07T12:23:42;23.80;31.10
38090;DHT22;23904;52.322;10.232;2023-04-07T12:26:08;23.30;31.90
38090;DHT22;23904;52.322;10.232;2023-04-07T12:28:36;22.20;34.10
38090;DHT22;23904;52.322;10.232;2023-04-07T12:31:02;21.60;34.80
38090;DHT22;23904;52.322;10.232;2023-04-07T12:33:28;21.10;35.40
38090;DHT22;23904;52.322;10.232;2023-04-07T12:35:54;20.30;36.10
38090;DHT22;23904;52.322;10.232;2023-04-07T12:38:20;19.90;37.60
38090;DHT22;23904;52.322;10.232;2023-04-07T12:40:46;19.60;37.60
38090;DHT22;23904;52.322;10.232;2023-04-07T12:43:11;18.90;38.40
38090;DHT22;23904;52.322;10.232;2023-04-07T12:45:37;19.10;38.70
38090;DHT22;23904;52.322;10.232;2023-04-07T12:48:03;18.70;37.70
38090;DHT22;23904;52.322;10.232;2023-04-07T12:50:29;18.40;39.30
38090;DHT22;23904;52.322;10.232;2023-04-07T12:52:56;18.20;39.80
38090;DHT22;23904;52.322;10.232;2023-04-07T12:55:23;18.00;40.00
38090;DHT22;23904;52.322;10.232;2023-04-07T12:57:49;18.10;39.50
38090;DHT22;23904;52.322;10.232;2023-04-07T13:00:15;18.40;39.00
38090;DHT22;23904;52.322;10.232;2023-04-07T13:02:41;18.30;38.20
38090;DHT22;23904;52.322;10.232;2023-04-07T13:05:08;18.40;38.90
38090;DHT22;23904;52.322;10.232;2023-04-07T13:07:34;18.60;37.30
38090;DHT22;23904;52.322;10.232;2023-04-07T13:10:00;18.60;36.80
38090;DHT22;23904;52.322;10.232;2023-04-07T13:12:26;18.90;36.80
38090;DHT22;23904;52.322;10.232;2023-04-07T13:14:52;19.50;36.10
38090;DHT22;23904;52.322;10.232;2023-04-07T13:17:18;19.50;35.70
38090;DHT22;23904;52.322;10.232;2023-04-07T13:19:44;19.30;36.70
38090;DHT22;23904;52.322;10.232;2023-04-07T13:22:12;19.70;37.30
38090;DHT22;23904;52.322;10.232;2023-04-07T13:24:38;19.50;36.40
38090;DHT22;23904;52.322;10.232;2023-04-07T13:27:04;19.10;37.10
38090;DHT22;23904;52.322;10.232;2023-04-07T13:29:31;19.10;36.90
38090;DHT22;23904;52.322;10.232;2023-04-07T13:32:06;18.80;37.00
38090;DHT22;23904;52.322;10.232;2023-04-07T13:34:34;18.30;37.40
38090;DHT22;23904;52.322;10.232;2023-04-07T13:37:01;17.60;38.50
38090;DHT22;23904;52.322;10.232;2023-04-07T13:39:28;17.50;38.40
38090;DHT22;23904;52.322;10.232;2023-04-07T13:41:54;17.30;38.90
38090;DHT22;23904;52.322;10.232;2023-04-07T13:44:20;17.20;39.40
38090;DHT22;23904;52.322;10.232;2023-04-07T13:46:46;17.10;40.30
38090;DHT22;23904;52.322;10.232;2023-04-07T13:49:12;16.90;40.90
38090;DHT22;23904;52.322;10.232;2023-04-07T13:51:39;17.20;40.90
38090;DHT22;23904;52.322;10.232;2023-04-07T13:54:05;17.10;40.80
38090;DHT22;23904;52.322;10.232;2023-04-07T13:56:30;17.10;40.70
38090;DHT22;23904;52.322;10.232;2023-04-07T13:58:56;17.10;41.20
38090;DHT22;23904;52.322;10.232;2023-04-07T14:01:21;17.00;39.60
38090;DHT22;23904;52.322;10.232;2023-04-07T14:03:47;16.80;39.80
38090;DHT22;23904;52.322;10.232;2023-04-07T14:06:13;16.70;39.30
38090;DHT22;23904;52.322;10.232;2023-04-07T14:08:39;16.60;40.70
38090;DHT22;23904;52.322;10.232;2023-04-07T14:11:05;16.60;41.10
38090;DHT22;23904;52.322;10.232;2023-04-07T14:13:30;16.10;42.20
38090;DHT22;23904;52.322;10.232;2023-04-07T14:15:56;16.00;43.10
38090;DHT22;23904;52.322;10.232;2023-04-07T14:18:21;16.30;42.80
38090;DHT22;23904;52.322;10.232;2023-04-07T14:20:48;16.30;43.50
38090;DHT22;23904;52.322;10.232;2023-04-07T14:23:13;16.40;41.00
38090;DHT22;23904;52.322;10.232;2023-04-07T14:25:39;16.40;41.40
38090;DHT22;23904;52.322;10.232;2023-04-07T14:28:05;16.40;40.70
38090;DHT22;23904;52.322;10.232;2023-04-07T14:30:30;16.50;41.20
38090;DHT22;23904;52.322;10.232;2023-04-07T14:33:02;16.50;41.10
38090;DHT22;23904;52.322;10.232;2023-04-07T14:35:28;16.30;40.90
38090;DHT22;23904;52.322;10.232;2023-04-07T14:37:53;16.20;41.20
38090;DHT22;23904;52.322;10.232;2023-04-07T14:40:19;16.20;41.90
38090;DHT22;23904;52.322;10.232;2023-04-07T14:42:45;16.20;42.20
38090;DHT22;23904;52.322;10.232;2023-04-07T14:45:10;16.10;43.30
38090;DHT22;23904;52.322;10.232;2023-04-07T14:47:37;16.00;42.40
38090;DHT22;23904;52.322;10.232;2023-04-07T14:50:02;15.90;42.60
38090;DHT22;23904;52.322;10.232;2023-04-07T14:52:28;15.80;43.00
38090;DHT22;23904;52.322;10.232;2023-04-07T14:54:54;15.80;43.80
38090;DHT22;23904;52.322;10.232;2023-04-07T14:57:19;15.90;43.90
38090;DHT22;23904;52.322;10.232;2023-04-07T14:59:46;15.80;43.50
38090;DHT22;23904;52.322;10.232;2023-04-07T15:02:12;15.80;43.80
38090;DHT22;23904;52.322;10.232;2023-04-07T15:04:37;16.00;44.40
38090;DHT22;23904;52.322;10.232;2023-04-07T15:07:03;16.00;43.30
38090;DHT22;23904;52.322;10.232;2023-04-07T15:09:29;16.00;43.20
38090;DHT22;23904;52.322;10.232;2023-04-07T15:11:55;15.80;44.00
38090;DHT22;23904;52.322;10.232;2023-04-07T15:14:21;15.60;44.50
38090;DHT22;23904;52.322;10.232;2023-04-07T15:16:46;15.30;44.30
38090;DHT22;23904;52.322;10.232;2023-04-07T15:19:14;15.10;44.70
38090;DHT22;23904;52.322;10.232;2023-04-07T15:21:40;15.00;45.10
38090;DHT22;23904;52.322;10.232;2023-04-07T15:24:06;14.90;44.90
38090;DHT22;23904;52.322;10.232;2023-04-07T15:26:32;14.90;45.00
38090;DHT22;23904;52.322;10.232;2023-04-07T15:28:57;14.70;45.80
38090;DHT22;23904;52.322;10.232;2023-04-07T15:31:23;14.70;46.10
38090;DHT22;23904;52.322;10.232;2023-04-07T15:33:51;14.70;47.00
38090;DHT22;23904;52.322;10.232;2023-04-07T15:36:16;14.60;47.00
38090;DHT22;23904;52.322;10.232;2023-04-07T15:38:42;14.60;47.60
38090;DHT22;23904;52.322;10.232;2023-04-07T15:41:08;14.40;47.80
38090;DHT22;23904;52.322;10.232;2023-04-07T15:43:34;14.50;47.80
38090;DHT22;23904;52.322;10.232;2023-04-07T15:46:00;14.60;47.10